createdAt,value
2022-08-10T00:00:56.217Z,14.30
2022-08-10T00:03:23.114Z,14.30
2022-08-10T00:05:53.229Z,14.30
2022-08-10T00:08:23.700Z,14.10
2022-08-10T00:10:55.793Z,14.10
2022-08-10T00:13:25.091Z,14.40
2022-08-10T00:15:55.064Z,14.50
2022-08-10T00:18:34.212Z,14.30
2022-08-10T00:21:06.057Z,14.30
2022-08-10T00:23:33.895Z,14.10
2022-08-10T00:26:01.127Z,14.10
2022-08-10T00:28:27.988Z,14.20
2022-08-10T00:30:54.619Z,14.10
2022-08-10T00:33:21.398Z,14.00
2022-08-10T00:35:51.445Z,13.90
2022-08-10T00:38:17.997Z,14.00
2022-08-10T00:40:45.407Z,13.90
2022-08-10T00:43:11.921Z,13.70
2022-08-10T00:45:38.522Z,13.70
2022-08-10T00:48:05.615Z,13.80
2022-08-10T00:50:32.429Z,13.80
2022-08-10T00:52:59.255Z,13.70
2022-08-10T00:55:26.853Z,13.60
2022-08-10T00:57:55.698Z,13.60
2022-08-10T01:00:25.983Z,13.50
2022-08-10T01:02:52.617Z,13.60
2022-08-10T01:05:19.903Z,13.60
2022-08-10T01:08:09.753Z,13.70
2022-08-10T01:12:40.048Z,13.60
2022-08-10T01:15:29.103Z,13.50
2022-08-10T01:20:30.438Z,13.50
2022-08-10T01:23:53.192Z,13.50
2022-08-10T01:29:59.221Z,13.30
2022-08-10T01:35:05.373Z,13.40
2022-08-10T01:37:38.221Z,13.30
2022-08-10T01:40:13.066Z,13.30
2022-08-10T01:42:46.393Z,13.40
2022-08-10T01:45:16.424Z,13.40
2022-08-10T01:48:05.176Z,13.30
2022-08-10T01:50:59.487Z,13.30
2022-08-10T01:53:55.410Z,13.30
2022-08-10T01:56:25.879Z,13.20
2022-08-10T01:58:59.053Z,13.10
2022-08-10T02:01:34.627Z,13.00
2022-08-10T02:04:07.564Z,13.00
2022-08-10T02:06:48.879Z,13.00
2022-08-10T02:09:54.511Z,12.90
2022-08-10T02:12:27.491Z,12.80
2022-08-10T02:15:03.433Z,12.90
2022-08-10T02:17:59.065Z,12.90
2022-08-10T02:20:40.822Z,12.80
2022-08-10T02:23:14.966Z,12.80
2022-08-10T02:25:43.957Z,12.70
2022-08-10T02:28:29.902Z,12.60
2022-08-10T02:31:12.135Z,12.60
2022-08-10T02:33:56.565Z,12.50
2022-08-10T02:36:30.456Z,12.50
2022-08-10T02:39:03.527Z,12.70
2022-08-10T02:45:02.631Z,12.80
2022-08-10T02:46:58.084Z,12.90
2022-08-10T02:49:36.336Z,13.00
2022-08-10T02:52:15.634Z,12.90
2022-08-10T02:54:59.401Z,12.80
2022-08-10T02:58:17.405Z,12.70
2022-08-10T03:00:51.035Z,12.50
2022-08-10T03:03:25.896Z,12.50
2022-08-10T03:06:02.367Z,12.60
2022-08-10T03:08:35.810Z,12.70
2022-08-10T03:11:07.986Z,12.60
2022-08-10T03:13:37.112Z,12.50
2022-08-10T03:16:06.401Z,12.40
2022-08-10T03:18:33.701Z,12.30
2022-08-10T03:21:01.929Z,12.40
2022-08-10T03:23:29.011Z,12.50
2022-08-10T03:26:00.192Z,12.40
2022-08-10T03:28:32.425Z,12.30
2022-08-10T03:31:01.617Z,12.30
2022-08-10T03:33:33.398Z,12.20
2022-08-10T03:36:43.889Z,12.20
2022-08-10T03:39:13.238Z,12.20
2022-08-10T03:41:53.420Z,12.30
2022-08-10T03:44:26.880Z,12.20
2022-08-10T03:46:55.190Z,12.20
2022-08-10T03:49:23.608Z,12.20
2022-08-10T03:51:50.846Z,12.10
2022-08-10T03:54:19.623Z,12.00
2022-08-10T03:56:47.133Z,12.00
2022-08-10T03:59:16.168Z,12.10
2022-08-10T04:02:46.316Z,12.40
2022-08-10T04:05:15.958Z,12.60
2022-08-10T04:07:46.260Z,12.80
2022-08-10T04:10:13.688Z,12.60
2022-08-10T04:12:40.352Z,12.80
2022-08-10T04:15:07.839Z,13.10
2022-08-10T04:18:04.013Z,13.20
2022-08-10T04:20:48.091Z,13.40
2022-08-10T04:23:24.815Z,13.10
2022-08-10T04:25:53.603Z,12.80
2022-08-10T04:28:20.519Z,12.60
2022-08-10T04:30:50.953Z,12.60
2022-08-10T04:33:22.125Z,12.60
2022-08-10T04:35:50.550Z,12.60
2022-08-10T04:38:20.276Z,12.60
2022-08-10T04:40:47.476Z,12.60
2022-08-10T04:43:14.357Z,12.50
2022-08-10T04:45:48.460Z,12.60
2022-08-10T04:48:42.866Z,12.60
2022-08-10T04:51:26.155Z,12.80
2022-08-10T04:54:03.887Z,13.00
2022-08-10T04:56:34.277Z,13.30
2022-08-10T04:59:00.953Z,13.50
2022-08-10T05:02:21.176Z,13.50
2022-08-10T05:04:58.797Z,13.70
2022-08-10T05:07:26.006Z,13.80
2022-08-10T05:10:02.394Z,13.90
2022-08-10T05:12:35.960Z,13.90
2022-08-10T05:15:06.274Z,14.00
2022-08-10T05:17:35.012Z,13.90
2022-08-10T05:20:06.769Z,14.00
2022-08-10T05:22:40.915Z,14.10
2022-08-10T05:25:15.045Z,14.30
2022-08-10T05:27:42.843Z,14.70
2022-08-10T05:30:14.286Z,15.20
2022-08-10T05:32:58.345Z,15.60
2022-08-10T05:35:27.695Z,15.90
2022-08-10T05:38:10.202Z,16.20
2022-08-10T05:40:47.366Z,16.30
2022-08-10T05:43:20.081Z,16.60
2022-08-10T05:46:18.779Z,17.10
2022-08-10T05:48:59.729Z,17.30
2022-08-10T05:51:29.186Z,17.30
2022-08-10T05:54:02.199Z,17.60
2022-08-10T05:56:55.133Z,17.90
2022-08-10T06:00:11.346Z,18.10
2022-08-10T06:03:08.123Z,18.40
2022-08-10T06:05:40.535Z,18.70
2022-08-10T06:08:19.398Z,18.70
2022-08-10T06:11:07.705Z,18.80
2022-08-10T06:15:06.035Z,18.90
2022-08-10T06:17:38.511Z,19.50
2022-08-10T06:20:06.593Z,19.80
2022-08-10T06:22:34.790Z,19.90
2022-08-10T06:28:01.457Z,20.10
2022-08-10T06:30:29.893Z,20.50
2022-08-10T06:32:59.989Z,20.80
2022-08-10T06:35:31.688Z,20.80
2022-08-10T06:38:02.491Z,20.80
2022-08-10T06:40:39.991Z,21.00
2022-08-10T06:43:12.753Z,21.50
2022-08-10T06:45:47.161Z,21.50
2022-08-10T06:48:44.515Z,21.60
2022-08-10T06:51:21.090Z,21.80
2022-08-10T06:53:54.677Z,22.10
2022-08-10T06:56:35.957Z,22.30
2022-08-10T06:59:22.020Z,22.50
2022-08-10T07:02:13.515Z,22.50
2022-08-10T07:04:51.563Z,22.70
2022-08-10T07:07:25.199Z,23.00
2022-08-10T07:09:54.299Z,23.10
2022-08-10T07:12:25.033Z,23.10
2022-08-10T07:14:55.033Z,23.30
2022-08-10T07:17:26.340Z,23.60
2022-08-10T07:19:57.843Z,23.90
2022-08-10T07:23:55.818Z,24.10
2022-08-10T07:26:30.034Z,24.20
2022-08-10T07:28:58.746Z,24.00
2022-08-10T07:31:36.088Z,23.80
2022-08-10T07:34:29.093Z,23.90
2022-08-10T07:37:02.335Z,24.10
2022-08-10T07:39:59.615Z,24.50
2022-08-10T07:42:32.614Z,24.70
2022-08-10T07:45:02.441Z,25.10
2022-08-10T07:47:53.515Z,25.20
2022-08-10T07:50:24.776Z,25.30
2022-08-10T07:52:56.439Z,25.40
2022-08-10T07:56:05.687Z,25.50
2022-08-10T07:58:46.325Z,25.50
2022-08-10T08:01:27.009Z,25.70
2022-08-10T08:04:10.829Z,25.70
2022-08-10T08:06:42.087Z,26.00
2022-08-10T08:09:10.364Z,26.30
2022-08-10T08:11:42.034Z,26.60
2022-08-10T08:14:10.591Z,26.80
2022-08-10T08:16:49.383Z,26.70
2022-08-10T08:19:27.716Z,26.80
2022-08-10T08:24:10.167Z,26.90
2022-08-10T08:26:30.358Z,26.80
2022-08-10T08:28:57.559Z,26.80
2022-08-10T08:31:33.925Z,26.70
2022-08-10T08:34:02.609Z,26.60
2022-08-10T08:36:30.186Z,26.60
2022-08-10T08:38:56.784Z,26.30
2022-08-10T08:44:10.048Z,26.40
2022-08-10T08:50:09.760Z,26.70
2022-08-10T08:54:02.400Z,26.70
2022-08-10T09:00:04.691Z,26.60
2022-08-10T09:03:28.157Z,26.70
2022-08-10T09:08:01.524Z,27.10
2022-08-10T09:14:17.229Z,27.30
2022-08-10T09:18:44.926Z,27.10
2022-08-10T09:22:37.439Z,26.20
2022-08-10T09:25:20.964Z,26.40
2022-08-10T09:28:02.120Z,26.40
2022-08-10T09:30:44.979Z,26.80
2022-08-10T09:36:26.576Z,27.40
2022-08-10T09:41:00.689Z,27.60
2022-08-10T09:58:06.017Z,27.60
2022-08-10T10:00:45.508Z,27.30
2022-08-10T10:03:37.610Z,27.40
2022-08-10T10:08:58.568Z,27.50
2022-08-10T10:15:27.335Z,27.20
2022-08-10T10:21:23.986Z,26.90
2022-08-10T10:24:50.297Z,27.30
2022-08-10T10:30:37.819Z,27.50
2022-08-10T10:33:22.527Z,27.90
2022-08-10T10:35:56.988Z,26.50
2022-08-10T10:38:33.518Z,26.50
2022-08-10T10:43:35.530Z,26.90
2022-08-10T10:51:36.311Z,27.10
2022-08-10T10:54:44.243Z,27.40
2022-08-10T11:00:11.259Z,27.60
2022-08-10T11:04:26.607Z,27.70
2022-08-10T11:07:29.499Z,27.90
2022-08-10T11:10:32.053Z,28.00
2022-08-10T11:14:29.270Z,28.00
2022-08-10T11:18:07.587Z,28.00
2022-08-10T11:23:00.394Z,27.70
2022-08-10T11:25:45.748Z,27.90
2022-08-10T11:28:40.246Z,28.20
2022-08-10T11:34:03.777Z,28.30
2022-08-10T11:38:30.391Z,28.00
2022-08-10T11:42:07.982Z,27.80
2022-08-10T11:45:05.146Z,27.80
2022-08-10T11:47:46.628Z,28.10
2022-08-10T11:50:24.584Z,28.50
2022-08-10T11:54:26.568Z,28.50
2022-08-10T11:57:02.249Z,28.60
2022-08-10T11:59:58.345Z,28.40
2022-08-10T12:02:36.554Z,28.20
2022-08-10T12:05:52.315Z,28.30
2022-08-10T12:10:05.063Z,28.40
2022-08-10T12:13:01.562Z,28.40
2022-08-10T12:16:19.147Z,28.40
2022-08-10T12:19:10.005Z,28.00
2022-08-10T12:21:56.522Z,27.60
2022-08-10T12:24:51.236Z,27.60
2022-08-10T12:27:32.929Z,27.90
2022-08-10T12:30:16.517Z,28.10
2022-08-10T12:33:02.517Z,28.10
2022-08-10T12:36:17.456Z,28.10
2022-08-10T12:39:21.764Z,28.30
2022-08-10T12:41:56.637Z,28.30
2022-08-10T12:44:42.849Z,28.20
2022-08-10T12:48:22.790Z,28.10
2022-08-10T12:51:22.453Z,27.80
2022-08-10T12:54:09.699Z,28.20
2022-08-10T12:56:44.979Z,28.30
2022-08-10T12:59:14.011Z,28.40
2022-08-10T13:02:10.010Z,28.40
2022-08-10T13:04:41.628Z,28.40
2022-08-10T13:07:10.516Z,28.50
2022-08-10T13:10:30.743Z,28.60
2022-08-10T13:13:00.510Z,28.90
2022-08-10T13:15:49.257Z,28.70
2022-08-10T13:18:45.529Z,28.70
2022-08-10T13:21:20.367Z,28.50
2022-08-10T13:24:15.079Z,28.40
2022-08-10T13:27:24.768Z,28.50
2022-08-10T13:30:04.017Z,28.50
2022-08-10T13:32:33.684Z,28.80
2022-08-10T13:35:16.879Z,28.80
2022-08-10T13:37:46.108Z,28.60
2022-08-10T13:40:19.880Z,28.30
2022-08-10T13:42:49.679Z,28.10
2022-08-10T13:45:21.274Z,27.90
2022-08-10T13:47:55.258Z,28.10
2022-08-10T13:50:33.482Z,28.20
2022-08-10T13:53:11.468Z,28.60
2022-08-10T13:56:00.752Z,28.80
2022-08-10T13:58:49.577Z,28.80
2022-08-10T14:01:24.013Z,28.70
2022-08-10T14:03:52.812Z,28.50
2022-08-10T14:06:29.610Z,28.10
2022-08-10T14:09:01.549Z,28.00
2022-08-10T14:11:31.150Z,27.70
2022-08-10T14:14:02.579Z,27.40
2022-08-10T14:16:32.565Z,27.40
2022-08-10T14:19:09.571Z,27.40
2022-08-10T14:21:42.652Z,27.40
2022-08-10T14:24:31.364Z,27.40
2022-08-10T14:27:22.097Z,27.50
2022-08-10T14:29:54.891Z,27.70
2022-08-10T14:32:26.881Z,28.10
2022-08-10T14:36:16.444Z,28.30
2022-08-10T14:38:53.321Z,28.50
2022-08-10T14:42:02.763Z,28.70
2022-08-10T14:44:52.709Z,28.40
2022-08-10T14:47:53.477Z,28.30
2022-08-10T14:50:33.419Z,28.00
2022-08-10T14:53:36.421Z,27.70
2022-08-10T14:56:27.101Z,27.50
2022-08-10T14:59:06.980Z,27.30
2022-08-10T15:01:59.926Z,27.00
2022-08-10T15:05:09.154Z,26.80
2022-08-10T15:07:37.925Z,26.60
2022-08-10T15:10:08.694Z,26.70
2022-08-10T15:12:39.167Z,26.60
2022-08-10T15:15:16.271Z,26.40
2022-08-10T15:17:52.949Z,26.30
2022-08-10T15:20:24.235Z,26.30
2022-08-10T15:22:58.264Z,26.30
2022-08-10T15:25:27.650Z,26.30
2022-08-10T15:28:07.458Z,26.20
2022-08-10T15:30:45.532Z,26.20
2022-08-10T15:33:57.709Z,26.30
2022-08-10T15:37:36.761Z,26.30
2022-08-10T15:40:23.993Z,26.40
2022-08-10T15:43:55.318Z,26.30
2022-08-10T15:46:36.328Z,26.30
2022-08-10T15:49:14.802Z,26.20
2022-08-10T15:53:50.212Z,26.20
2022-08-10T15:56:34.881Z,26.20
2022-08-10T15:59:31.574Z,26.30
2022-08-10T16:02:17.515Z,26.30
2022-08-10T16:04:59.097Z,26.20
2022-08-10T16:07:45.594Z,26.30
2022-08-10T16:10:25.306Z,26.40
2022-08-10T16:13:59.373Z,26.40
2022-08-10T16:16:38.622Z,26.30
2022-08-10T16:19:22.235Z,26.30
2022-08-10T16:22:36.651Z,26.30
2022-08-10T16:25:14.746Z,26.20
2022-08-10T16:27:44.309Z,26.30
2022-08-10T16:30:12.283Z,26.20
2022-08-10T16:32:40.207Z,26.20
2022-08-10T16:35:14.837Z,26.20
2022-08-10T16:37:57.881Z,26.10
2022-08-10T16:40:29.415Z,26.00
2022-08-10T16:43:00.742Z,26.00
2022-08-10T16:45:39.497Z,25.90
2022-08-10T16:48:08.558Z,26.00
2022-08-10T16:50:51.513Z,26.00
2022-08-10T16:53:22.486Z,25.90
2022-08-10T16:55:53.586Z,25.80
2022-08-10T16:58:29.849Z,25.70
2022-08-10T17:01:14.413Z,25.70
2022-08-10T17:04:08.579Z,25.70
2022-08-10T17:06:51.369Z,25.50
2022-08-10T17:09:29.224Z,25.40
2022-08-10T17:11:58.969Z,25.20
2022-08-10T17:14:28.665Z,25.10
2022-08-10T17:17:05.530Z,24.90
2022-08-10T17:19:40.079Z,24.90
2022-08-10T17:22:22.521Z,24.80
2022-08-10T17:25:13.725Z,24.80
2022-08-10T17:28:04.976Z,24.70
2022-08-10T17:30:58.152Z,24.60
2022-08-10T17:33:30.798Z,24.50
2022-08-10T17:36:03.482Z,24.30
2022-08-10T17:38:32.714Z,24.20
2022-08-10T17:41:11.583Z,24.00
2022-08-10T17:44:00.655Z,23.90
2022-08-10T17:46:40.381Z,23.90
2022-08-10T17:49:11.357Z,23.80
2022-08-10T17:51:47.726Z,23.80
2022-08-10T17:55:06.333Z,23.80
2022-08-10T17:57:38.741Z,23.70
2022-08-10T18:00:14.997Z,23.50
2022-08-10T18:02:48.539Z,23.40
2022-08-10T18:05:15.565Z,23.30
2022-08-10T18:07:50.953Z,23.30
2022-08-10T18:10:21.643Z,23.20
2022-08-10T18:12:59.752Z,23.20
2022-08-10T18:15:28.127Z,23.10
2022-08-10T18:18:00.135Z,23.10
2022-08-10T18:20:35.450Z,23.10
2022-08-10T18:23:04.452Z,23.10
2022-08-10T18:25:39.758Z,23.10
2022-08-10T18:28:11.899Z,23.10
2022-08-10T18:30:53.200Z,23.10
2022-08-10T18:33:30.444Z,22.90
2022-08-10T18:36:03.734Z,22.70
2022-08-10T18:38:34.657Z,22.60
2022-08-10T18:41:10.471Z,22.50
2022-08-10T18:44:06.320Z,22.50
2022-08-10T18:46:50.168Z,22.30
2022-08-10T18:49:52.757Z,22.10
2022-08-10T18:52:24.207Z,22.10
2022-08-10T18:55:02.877Z,21.90
2022-08-10T18:58:06.365Z,21.80
2022-08-10T19:04:24.527Z,21.60
2022-08-10T19:07:42.867Z,21.50
2022-08-10T19:10:59.928Z,21.40
2022-08-10T19:13:53.609Z,21.30
2022-08-10T19:18:06.757Z,21.30
2022-08-10T19:20:49.140Z,21.30
2022-08-10T19:28:40.746Z,21.30
2022-08-10T19:31:24.653Z,21.20
2022-08-10T19:35:19.458Z,21.20
2022-08-10T19:38:17.097Z,21.00
2022-08-10T19:41:32.853Z,21.00
2022-08-10T19:46:25.905Z,20.90
2022-08-10T19:49:41.633Z,20.80
2022-08-10T19:54:15.530Z,20.80
2022-08-10T19:57:02.909Z,20.80
2022-08-10T20:00:02.062Z,20.60
2022-08-10T20:03:03.986Z,20.60
2022-08-10T20:06:13.148Z,20.70
2022-08-10T20:09:12.620Z,21.00
2022-08-10T20:12:06.945Z,21.00
2022-08-10T20:16:36.901Z,21.10
2022-08-10T20:20:56.293Z,21.10
2022-08-10T20:23:33.756Z,21.00
2022-08-10T20:26:20.974Z,20.90
2022-08-10T20:29:10.851Z,20.80
2022-08-10T20:32:06.598Z,20.80
2022-08-10T20:34:52.090Z,20.60
2022-08-10T20:38:02.807Z,20.50
2022-08-10T20:40:53.272Z,20.30
2022-08-10T20:45:03.759Z,20.20
2022-08-10T20:47:55.656Z,20.10
2022-08-10T20:50:49.408Z,20.00
2022-08-10T20:53:29.718Z,19.80
2022-08-10T20:56:13.965Z,19.80
2022-08-10T21:02:06.843Z,19.50
2022-08-10T21:05:01.993Z,19.40
2022-08-10T21:09:26.570Z,19.40
2022-08-10T21:15:25.180Z,19.30
2022-08-10T21:20:54.186Z,19.30
2022-08-10T21:23:30.685Z,19.20
2022-08-10T21:26:13.467Z,19.10
2022-08-10T21:30:18.734Z,19.10
2022-08-10T21:35:50.133Z,19.10
2022-08-10T21:41:18.322Z,19.20
2022-08-10T21:45:54.837Z,19.10
2022-08-10T21:52:01.782Z,18.90
2022-08-10T21:55:12.624Z,18.70
2022-08-10T22:00:34.958Z,18.80
2022-08-10T22:03:23.326Z,18.60
2022-08-10T22:06:15.484Z,18.20
2022-08-10T22:09:07.333Z,18.10
2022-08-10T22:12:02.406Z,18.20
2022-08-10T22:14:57.992Z,18.10
2022-08-10T22:18:03.321Z,18.10
2022-08-10T22:20:54.383Z,18.20
2022-08-10T22:27:00.831Z,18.30
2022-08-10T22:30:04.287Z,18.10
2022-08-10T22:39:10.686Z,17.90
2022-08-10T22:42:58.046Z,17.70
2022-08-10T22:45:46.157Z,17.80
2022-08-10T22:48:31.679Z,17.80
2022-08-10T22:51:14.456Z,17.70
2022-08-10T22:54:30.623Z,17.60
2022-08-10T22:57:19.239Z,17.50
2022-08-10T22:59:48.838Z,17.40
2022-08-10T23:02:34.634Z,17.30
2022-08-10T23:05:16.124Z,17.30
2022-08-10T23:07:52.261Z,17.30
2022-08-10T23:10:23.770Z,17.30
2022-08-10T23:13:04.765Z,17.20
2022-08-10T23:15:57.612Z,17.00
2022-08-10T23:19:08.709Z,16.80
2022-08-10T23:22:46.760Z,16.90
2022-08-10T23:25:21.229Z,16.80
2022-08-10T23:27:59.565Z,16.80
2022-08-10T23:30:38.463Z,16.90
2022-08-10T23:33:12.217Z,17.00
2022-08-10T23:36:28.095Z,17.00
2022-08-10T23:39:24.538Z,17.20
2022-08-10T23:42:07.465Z,17.00
2022-08-10T23:44:47.486Z,16.90
2022-08-10T23:47:23.858Z,16.90
2022-08-10T23:49:55.535Z,16.90
2022-08-10T23:52:27.909Z,16.90
2022-08-10T23:55:00.294Z,16.90
2022-08-10T23:57:29.327Z,16.70
